createdAt,value
2022-10-26T00:01:26.711Z,99.90
2022-10-26T00:03:58.086Z,99.90
2022-10-26T00:06:29.053Z,99.90
2022-10-26T00:08:58.649Z,99.90
2022-10-26T00:11:27.108Z,99.90
2022-10-26T00:13:55.668Z,99.90
2022-10-26T00:16:26.460Z,99.90
2022-10-26T00:18:56.991Z,99.90
2022-10-26T00:21:25.518Z,99.90
2022-10-26T00:23:53.957Z,99.90
2022-10-26T00:26:22.500Z,99.90
2022-10-26T00:28:51.018Z,99.90
2022-10-26T00:31:19.550Z,99.90
2022-10-26T00:33:48.377Z,99.90
2022-10-26T00:36:18.620Z,99.90
2022-10-26T00:38:50.493Z,99.90
2022-10-26T00:41:20.223Z,99.90
2022-10-26T00:43:49.177Z,99.90
2022-10-26T00:46:21.948Z,99.90
2022-10-26T00:48:53.448Z,99.90
2022-10-26T00:51:26.900Z,99.90
2022-10-26T00:53:56.498Z,99.90
2022-10-26T00:56:25.448Z,99.90
2022-10-26T00:58:54.178Z,99.90
2022-10-26T01:01:22.702Z,99.90
2022-10-26T01:03:51.550Z,99.90
2022-10-26T01:06:20.389Z,99.90
2022-10-26T01:08:50.815Z,99.90
2022-10-26T01:11:19.739Z,99.90
2022-10-26T01:13:49.678Z,99.90
2022-10-26T01:16:39.569Z,99.90
2022-10-26T01:19:45.768Z,99.90
2022-10-26T01:22:20.030Z,99.90
2022-10-26T01:25:04.402Z,99.90
2022-10-26T01:27:35.824Z,99.90
2022-10-26T01:30:29.219Z,99.90
2022-10-26T01:33:10.619Z,99.90
2022-10-26T01:35:47.258Z,99.90
2022-10-26T01:38:28.138Z,99.90
2022-10-26T01:41:03.288Z,99.90
2022-10-26T01:43:36.699Z,99.90
2022-10-26T01:46:09.452Z,99.90
2022-10-26T01:48:40.578Z,99.90
2022-10-26T01:51:10.995Z,99.90
2022-10-26T01:53:46.158Z,99.90
2022-10-26T01:56:19.996Z,99.90
2022-10-26T01:59:21.098Z,99.90
2022-10-26T02:02:19.099Z,99.90
2022-10-26T02:05:09.351Z,99.90
2022-10-26T02:07:48.989Z,99.90
2022-10-26T02:10:30.838Z,99.90
2022-10-26T02:13:10.238Z,99.90
2022-10-26T02:15:41.958Z,99.90
2022-10-26T02:18:20.807Z,99.90
2022-10-26T02:20:55.159Z,99.90
2022-10-26T02:23:27.448Z,99.90
2022-10-26T02:26:00.387Z,99.90
2022-10-26T02:28:29.478Z,99.90
2022-10-26T02:31:00.797Z,99.90
2022-10-26T02:33:32.732Z,99.90
2022-10-26T02:36:06.907Z,99.90
2022-10-26T02:38:38.347Z,99.90
2022-10-26T02:41:08.507Z,99.90
2022-10-26T02:43:43.368Z,99.90
2022-10-26T02:46:16.938Z,99.90
2022-10-26T02:48:45.838Z,99.90
2022-10-26T02:51:20.704Z,99.90
2022-10-26T02:53:54.745Z,99.90
2022-10-26T02:56:29.759Z,99.90
2022-10-26T02:59:05.695Z,99.90
2022-10-26T03:01:35.912Z,99.90
2022-10-26T03:04:04.730Z,99.90
2022-10-26T03:06:34.688Z,99.90
2022-10-26T03:09:03.375Z,99.90
2022-10-26T03:11:31.837Z,99.90
2022-10-26T03:14:00.304Z,99.90
2022-10-26T03:16:29.000Z,99.90
2022-10-26T03:18:57.432Z,99.90
2022-10-26T03:21:29.097Z,99.90
2022-10-26T03:23:59.159Z,99.90
2022-10-26T03:26:27.729Z,99.90
2022-10-26T03:28:56.268Z,99.90
2022-10-26T03:31:24.806Z,99.90
2022-10-26T03:33:53.271Z,99.90
2022-10-26T03:36:21.738Z,99.90
2022-10-26T03:38:50.189Z,99.90
2022-10-26T03:41:20.029Z,99.90
2022-10-26T03:43:49.067Z,99.90
2022-10-26T03:46:17.518Z,99.90
2022-10-26T03:48:45.978Z,99.90
2022-10-26T03:51:14.445Z,99.90
2022-10-26T03:53:42.938Z,99.90
2022-10-26T03:56:11.747Z,99.90
2022-10-26T03:58:41.561Z,99.90
2022-10-26T04:01:10.088Z,99.90
2022-10-26T04:03:38.639Z,99.90
2022-10-26T04:06:07.638Z,99.90
2022-10-26T04:08:36.091Z,99.90
2022-10-26T04:11:04.895Z,99.90
2022-10-26T04:13:33.478Z,99.90
2022-10-26T04:16:03.435Z,99.90
2022-10-26T04:18:31.979Z,99.90
2022-10-26T04:21:03.302Z,99.90
2022-10-26T04:23:32.048Z,99.90
2022-10-26T04:26:00.577Z,99.90
2022-10-26T04:28:29.040Z,99.90
2022-10-26T04:30:57.568Z,99.90
2022-10-26T04:33:27.560Z,99.90
2022-10-26T04:36:00.891Z,99.90
2022-10-26T04:38:29.378Z,99.90
2022-10-26T04:40:58.878Z,99.90
2022-10-26T04:43:27.401Z,99.90
2022-10-26T04:45:57.118Z,99.90
2022-10-26T04:48:27.130Z,99.90
2022-10-26T04:50:55.595Z,99.90
2022-10-26T04:53:24.130Z,99.90
2022-10-26T04:55:58.310Z,99.90
2022-10-26T04:58:27.036Z,99.90
2022-10-26T05:00:55.872Z,99.90
2022-10-26T05:03:24.348Z,99.90
2022-10-26T05:05:54.178Z,99.90
2022-10-26T05:08:22.759Z,99.90
2022-10-26T05:10:51.570Z,99.90
2022-10-26T05:13:20.067Z,99.90
2022-10-26T05:15:48.686Z,99.90
2022-10-26T05:18:17.207Z,99.90
2022-10-26T05:20:45.678Z,99.90
2022-10-26T05:23:18.740Z,99.90
2022-10-26T05:25:49.187Z,99.90
2022-10-26T05:28:19.034Z,99.90
2022-10-26T05:30:48.271Z,99.90
2022-10-26T05:33:16.880Z,99.90
2022-10-26T05:35:45.498Z,99.90
2022-10-26T05:38:19.490Z,99.90
2022-10-26T05:40:52.024Z,99.90
2022-10-26T05:43:21.364Z,99.90
2022-10-26T05:45:51.870Z,99.90
2022-10-26T05:48:20.689Z,99.90
2022-10-26T05:50:49.279Z,99.90
2022-10-26T05:53:19.189Z,99.90
2022-10-26T05:55:48.308Z,99.90
2022-10-26T05:58:17.400Z,99.90
2022-10-26T06:01:01.761Z,99.90
2022-10-26T06:03:38.129Z,99.90
2022-10-26T06:06:08.739Z,99.90
2022-10-26T06:08:39.391Z,99.90
2022-10-26T06:11:10.356Z,99.90
2022-10-26T06:13:39.322Z,99.90
2022-10-26T06:16:25.878Z,99.90
2022-10-26T06:19:05.629Z,99.90
2022-10-26T06:21:45.410Z,99.90
2022-10-26T06:24:21.656Z,99.90
2022-10-26T06:27:00.478Z,99.90
2022-10-26T06:29:41.901Z,99.90
2022-10-26T06:32:11.649Z,99.90
2022-10-26T06:34:46.201Z,99.90
2022-10-26T06:37:15.283Z,99.90
2022-10-26T06:39:51.301Z,99.90
2022-10-26T06:42:23.307Z,99.90
2022-10-26T06:44:52.488Z,99.90
2022-10-26T06:47:31.363Z,99.90
2022-10-26T06:50:10.901Z,99.90
2022-10-26T06:52:46.720Z,99.90
2022-10-26T06:55:17.722Z,99.90
2022-10-26T06:57:47.143Z,99.90
2022-10-26T07:00:21.268Z,99.90
2022-10-26T07:02:50.750Z,99.90
2022-10-26T07:05:19.668Z,99.90
2022-10-26T07:07:49.381Z,99.90
2022-10-26T07:10:19.574Z,99.90
2022-10-26T07:12:48.071Z,99.90
2022-10-26T07:15:16.671Z,99.90
2022-10-26T07:17:46.208Z,99.90
2022-10-26T07:20:15.379Z,99.90
2022-10-26T07:22:44.062Z,99.90
2022-10-26T07:25:13.315Z,99.90
2022-10-26T07:27:43.262Z,99.90
2022-10-26T07:30:12.578Z,99.90
2022-10-26T07:32:41.014Z,99.90
2022-10-26T07:35:10.261Z,99.90
2022-10-26T07:37:38.958Z,99.90
2022-10-26T07:40:08.925Z,99.90
2022-10-26T07:42:37.677Z,99.90
2022-10-26T07:45:09.227Z,99.90
2022-10-26T07:47:37.691Z,99.90
2022-10-26T07:50:08.719Z,99.90
2022-10-26T07:52:37.167Z,99.90
2022-10-26T07:55:06.193Z,99.90
2022-10-26T07:57:35.822Z,99.90
2022-10-26T08:00:04.833Z,99.90
2022-10-26T08:02:36.948Z,99.90
2022-10-26T08:05:06.236Z,99.90
2022-10-26T08:07:34.737Z,99.90
2022-10-26T08:10:04.736Z,99.90
2022-10-26T08:12:33.246Z,99.90
2022-10-26T08:15:01.690Z,99.90
2022-10-26T08:17:30.387Z,99.90
2022-10-26T08:20:00.423Z,99.90
2022-10-26T08:22:31.038Z,99.90
2022-10-26T08:24:59.562Z,99.90
2022-10-26T08:27:28.130Z,99.90
2022-10-26T08:29:56.610Z,99.90
2022-10-26T08:32:25.140Z,99.90
2022-10-26T08:34:53.628Z,99.90
2022-10-26T08:37:23.667Z,99.90
2022-10-26T08:39:54.754Z,99.90
2022-10-26T08:42:30.072Z,99.90
2022-10-26T08:45:03.157Z,99.90
2022-10-26T08:47:35.842Z,99.90
2022-10-26T08:50:11.690Z,99.90
2022-10-26T08:52:49.279Z,99.90
2022-10-26T08:55:20.423Z,99.90
2022-10-26T08:57:51.493Z,99.90
2022-10-26T09:00:22.882Z,99.90
2022-10-26T09:02:52.269Z,99.90
2022-10-26T09:05:25.084Z,99.90
2022-10-26T09:08:02.428Z,99.90
2022-10-26T09:10:40.335Z,99.90
2022-10-26T09:13:19.496Z,99.90
2022-10-26T09:15:59.758Z,99.90
2022-10-26T09:18:41.967Z,99.90
2022-10-26T09:21:21.252Z,99.90
2022-10-26T09:24:01.114Z,99.90
2022-10-26T09:26:34.257Z,99.90
2022-10-26T09:29:04.996Z,99.90
2022-10-26T09:31:43.140Z,99.90
2022-10-26T09:34:21.884Z,99.90
2022-10-26T09:36:55.288Z,99.90
2022-10-26T09:39:35.067Z,99.90
2022-10-26T09:42:13.141Z,99.90
2022-10-26T09:44:46.439Z,99.90
2022-10-26T09:47:24.655Z,99.90
2022-10-26T09:49:57.531Z,99.90
2022-10-26T09:52:25.685Z,99.90
2022-10-26T09:54:55.653Z,99.90
2022-10-26T09:57:25.104Z,99.90
2022-10-26T09:59:55.870Z,99.90
2022-10-26T10:02:44.008Z,90.00
2022-10-26T10:05:51.346Z,93.40
2022-10-26T10:08:21.956Z,86.70
2022-10-26T10:11:00.471Z,72.90
2022-10-26T10:13:31.143Z,72.60
2022-10-26T10:16:05.788Z,62.80
2022-10-26T10:18:35.374Z,70.40
2022-10-26T10:21:05.935Z,64.10
2022-10-26T10:23:36.167Z,60.20
2022-10-26T10:26:12.371Z,58.70
2022-10-26T10:28:42.571Z,53.80
2022-10-26T10:31:24.338Z,56.40
2022-10-26T10:33:53.376Z,61.70
2022-10-26T10:36:23.921Z,59.40
2022-10-26T10:38:55.779Z,54.50
2022-10-26T10:41:33.337Z,54.90
2022-10-26T10:44:09.974Z,51.20
2022-10-26T10:46:39.718Z,49.30
2022-10-26T10:49:21.571Z,53.40
2022-10-26T10:51:51.978Z,54.30
2022-10-26T10:54:27.221Z,54.60
2022-10-26T10:57:16.094Z,51.30
2022-10-26T11:00:02.973Z,52.00
2022-10-26T11:02:52.231Z,55.00
2022-10-26T11:05:29.875Z,55.30
2022-10-26T11:08:03.967Z,50.60
2022-10-26T11:10:37.110Z,51.80
2022-10-26T11:13:15.151Z,49.10
2022-10-26T11:15:49.918Z,46.30
2022-10-26T11:18:26.407Z,49.80
2022-10-26T11:21:03.329Z,45.50
2022-10-26T11:23:39.094Z,51.00
2022-10-26T11:26:14.327Z,46.90
2022-10-26T11:28:51.257Z,43.50
2022-10-26T11:31:25.001Z,45.10
2022-10-26T11:34:13.837Z,43.80
2022-10-26T11:36:45.783Z,45.70
2022-10-26T11:39:25.306Z,45.20
2022-10-26T11:42:02.649Z,45.30
2022-10-26T11:44:41.543Z,43.70
2022-10-26T11:47:20.494Z,41.60
2022-10-26T11:49:53.724Z,42.50
2022-10-26T11:52:29.790Z,40.30
2022-10-26T11:55:02.382Z,41.20
2022-10-26T11:57:41.121Z,43.20
2022-10-26T12:00:21.040Z,42.40
2022-10-26T12:02:55.975Z,46.00
2022-10-26T12:05:29.229Z,46.70
2022-10-26T12:08:02.122Z,54.20
2022-10-26T12:10:39.710Z,54.50
2022-10-26T12:13:21.066Z,65.40
2022-10-26T12:16:04.065Z,80.30
2022-10-26T12:18:57.165Z,82.00
2022-10-26T12:21:32.103Z,99.90
2022-10-26T12:24:03.037Z,99.90
2022-10-26T12:26:55.651Z,99.90
2022-10-26T12:29:51.580Z,99.90
2022-10-26T12:33:07.545Z,99.90
2022-10-26T12:35:49.134Z,99.90
2022-10-26T12:39:02.821Z,99.90
2022-10-26T12:41:35.691Z,99.90
2022-10-26T12:44:34.041Z,99.90
2022-10-26T12:47:03.999Z,99.90
2022-10-26T12:50:02.641Z,99.90
2022-10-26T12:52:48.761Z,86.30
2022-10-26T12:56:06.202Z,87.10
2022-10-26T12:59:11.028Z,85.50
2022-10-26T13:02:09.558Z,80.60
2022-10-26T13:05:16.096Z,90.50
2022-10-26T13:07:47.138Z,99.90
2022-10-26T13:10:25.112Z,97.40
2022-10-26T13:13:01.500Z,92.50
2022-10-26T13:15:33.469Z,76.30
2022-10-26T13:18:14.912Z,95.50
2022-10-26T13:21:07.871Z,81.80
2022-10-26T13:23:48.947Z,91.60
2022-10-26T13:26:24.696Z,97.80
2022-10-26T13:32:02.978Z,98.50
2022-10-26T13:34:36.543Z,99.90
2022-10-26T13:37:23.092Z,99.90
2022-10-26T13:40:01.105Z,99.90
2022-10-26T13:42:48.318Z,99.90
2022-10-26T13:45:23.489Z,99.90
2022-10-26T13:47:58.395Z,99.90
2022-10-26T13:50:43.483Z,99.90
2022-10-26T13:53:22.774Z,99.90
2022-10-26T13:56:09.366Z,99.90
2022-10-26T13:58:49.853Z,99.90
2022-10-26T14:01:21.687Z,99.90
2022-10-26T14:04:01.070Z,99.90
2022-10-26T14:06:34.334Z,99.90
2022-10-26T14:09:09.270Z,99.90
2022-10-26T14:11:58.812Z,99.90
2022-10-26T14:17:33.777Z,99.90
2022-10-26T14:20:24.214Z,99.90
2022-10-26T14:23:10.281Z,99.90
2022-10-26T14:26:14.858Z,99.90
2022-10-26T14:29:04.611Z,99.90
2022-10-26T14:31:38.256Z,99.90
2022-10-26T14:34:30.129Z,99.90
2022-10-26T14:37:12.988Z,99.90
2022-10-26T14:39:48.192Z,99.90
2022-10-26T14:42:28.961Z,99.90
2022-10-26T14:45:09.376Z,99.90
2022-10-26T14:51:02.041Z,99.90
2022-10-26T14:53:39.534Z,99.90
2022-10-26T14:56:22.108Z,99.90
2022-10-26T14:58:51.712Z,99.90
2022-10-26T15:01:35.729Z,99.90
2022-10-26T15:04:07.521Z,99.90
2022-10-26T15:06:44.148Z,99.90
2022-10-26T15:09:50.199Z,99.90
2022-10-26T15:12:28.826Z,99.90
2022-10-26T15:15:06.603Z,99.90
2022-10-26T15:17:41.189Z,99.90
2022-10-26T15:20:17.964Z,99.90
2022-10-26T15:22:53.838Z,99.90
2022-10-26T15:25:26.102Z,99.90
2022-10-26T15:27:54.999Z,99.90
2022-10-26T15:30:26.347Z,99.90
2022-10-26T15:32:56.538Z,99.90
2022-10-26T15:35:31.813Z,99.90
2022-10-26T15:38:02.264Z,99.90
2022-10-26T15:40:32.532Z,99.90
2022-10-26T15:43:03.141Z,99.90
2022-10-26T15:45:35.225Z,99.90
2022-10-26T15:48:21.213Z,99.90
2022-10-26T15:50:49.958Z,99.90
2022-10-26T15:53:23.415Z,99.90
2022-10-26T15:55:54.115Z,99.90
2022-10-26T15:58:23.540Z,99.90
2022-10-26T16:00:53.140Z,99.90
2022-10-26T16:03:24.239Z,99.90
2022-10-26T16:05:58.231Z,99.90
2022-10-26T16:08:31.651Z,99.90
2022-10-26T16:11:01.266Z,99.90
2022-10-26T16:13:32.700Z,99.90
2022-10-26T16:16:01.579Z,99.90
2022-10-26T16:18:31.808Z,99.90
2022-10-26T16:21:00.799Z,99.90
2022-10-26T16:23:32.361Z,99.90
2022-10-26T16:26:01.929Z,99.90
2022-10-26T16:28:31.183Z,99.90
2022-10-26T16:31:06.552Z,99.90
2022-10-26T16:33:39.423Z,99.90
2022-10-26T16:36:09.834Z,99.90
2022-10-26T16:38:41.105Z,99.90
2022-10-26T16:41:12.970Z,99.90
2022-10-26T16:43:46.031Z,99.90
2022-10-26T16:46:15.702Z,99.90
2022-10-26T16:48:46.064Z,99.90
2022-10-26T16:51:17.084Z,99.90
2022-10-26T16:53:49.149Z,99.90
2022-10-26T16:56:20.477Z,99.90
2022-10-26T16:58:51.626Z,99.90
2022-10-26T17:01:23.108Z,99.90
2022-10-26T17:03:53.610Z,99.90
2022-10-26T17:06:24.944Z,99.90
2022-10-26T17:08:55.517Z,99.90
2022-10-26T17:11:24.831Z,99.90
2022-10-26T17:13:56.502Z,99.90
2022-10-26T17:16:28.656Z,99.90
2022-10-26T17:19:05.452Z,99.90
2022-10-26T17:21:39.249Z,99.90
2022-10-26T17:24:10.487Z,99.90
2022-10-26T17:26:40.409Z,99.90
2022-10-26T17:29:11.589Z,99.90
2022-10-26T17:31:43.479Z,99.90
2022-10-26T17:34:18.405Z,99.90
2022-10-26T17:36:49.333Z,99.90
2022-10-26T17:39:28.268Z,99.90
2022-10-26T17:41:59.910Z,99.90
2022-10-26T17:44:30.820Z,99.90
2022-10-26T17:46:59.575Z,99.90
2022-10-26T17:49:36.284Z,99.90
2022-10-26T17:52:06.464Z,99.90
2022-10-26T17:54:37.152Z,99.90
2022-10-26T17:57:09.432Z,99.90
2022-10-26T17:59:38.881Z,99.90
2022-10-26T18:02:13.336Z,99.90
2022-10-26T18:04:50.002Z,99.90
2022-10-26T18:07:22.141Z,99.90
2022-10-26T18:09:54.492Z,99.90
2022-10-26T18:12:24.492Z,99.90
2022-10-26T18:14:53.316Z,99.90
2022-10-26T18:17:26.671Z,99.90
2022-10-26T18:22:26.499Z,99.90
2022-10-26T18:24:57.346Z,99.90
2022-10-26T18:27:26.857Z,99.90
2022-10-26T18:29:56.928Z,99.90
2022-10-26T18:32:26.565Z,99.90
2022-10-26T18:34:57.226Z,99.90
2022-10-26T18:37:28.430Z,99.90
2022-10-26T18:40:01.364Z,99.90
2022-10-26T18:42:31.476Z,99.90
2022-10-26T18:45:04.212Z,99.90
2022-10-26T18:47:35.516Z,99.90
2022-10-26T18:50:06.158Z,99.90
2022-10-26T18:52:35.842Z,99.90
2022-10-26T18:55:07.242Z,99.90
2022-10-26T18:57:42.106Z,99.90
2022-10-26T19:00:13.026Z,99.90
2022-10-26T19:02:42.259Z,99.90
2022-10-26T19:05:13.450Z,99.90
2022-10-26T19:07:42.384Z,99.90
2022-10-26T19:10:14.366Z,99.90
2022-10-26T19:12:43.762Z,99.90
2022-10-26T19:15:16.125Z,99.90
2022-10-26T19:17:45.615Z,99.90
2022-10-26T19:20:17.236Z,99.90
2022-10-26T19:22:49.040Z,99.90
2022-10-26T19:25:22.551Z,99.90
2022-10-26T19:27:57.245Z,99.90
2022-10-26T19:30:26.994Z,99.90
2022-10-26T19:32:57.666Z,99.90
2022-10-26T19:35:30.101Z,99.90
2022-10-26T19:38:00.822Z,99.90
2022-10-26T19:40:33.054Z,99.90
2022-10-26T19:43:02.662Z,99.90
2022-10-26T19:45:33.171Z,99.90
2022-10-26T19:48:02.840Z,99.90
2022-10-26T19:50:31.637Z,99.90
2022-10-26T19:53:04.109Z,99.90
2022-10-26T19:55:36.963Z,99.90
2022-10-26T19:58:05.886Z,99.90
2022-10-26T20:00:36.835Z,99.90
2022-10-26T20:03:06.865Z,99.90
2022-10-26T20:05:36.778Z,99.90
2022-10-26T20:08:08.092Z,99.90
2022-10-26T20:10:42.674Z,99.90
2022-10-26T20:13:13.624Z,99.90
2022-10-26T20:15:49.257Z,99.90
2022-10-26T20:18:20.807Z,99.90
2022-10-26T20:20:51.253Z,99.90
2022-10-26T20:23:22.139Z,99.90
2022-10-26T20:25:56.070Z,99.90
2022-10-26T20:28:28.812Z,99.90
2022-10-26T20:30:59.884Z,99.90
2022-10-26T20:33:29.401Z,99.90
2022-10-26T20:35:59.046Z,99.90
2022-10-26T20:38:29.646Z,99.90
2022-10-26T20:41:03.678Z,99.90
2022-10-26T20:43:38.200Z,99.90
2022-10-26T20:46:07.679Z,99.90
2022-10-26T20:48:39.153Z,99.90
2022-10-26T20:51:14.412Z,99.90
2022-10-26T20:53:47.281Z,99.90
2022-10-26T20:56:24.178Z,99.90
2022-10-26T20:58:56.036Z,99.90
2022-10-26T21:01:28.098Z,99.90
2022-10-26T21:03:58.664Z,99.90
2022-10-26T21:06:28.591Z,99.90
2022-10-26T21:08:59.779Z,99.90
2022-10-26T21:11:30.328Z,99.90
2022-10-26T21:14:01.136Z,99.90
2022-10-26T21:16:30.376Z,99.90
2022-10-26T21:19:00.433Z,99.90
2022-10-26T21:21:29.260Z,99.90
2022-10-26T21:23:58.318Z,99.90
2022-10-26T21:26:27.150Z,99.90
2022-10-26T21:28:57.385Z,99.90
2022-10-26T21:31:26.233Z,99.90
2022-10-26T21:33:55.023Z,99.90
2022-10-26T21:36:24.144Z,99.90
2022-10-26T21:38:53.704Z,99.90
2022-10-26T21:44:03.282Z,99.90
2022-10-26T21:46:39.771Z,99.90
2022-10-26T21:49:08.600Z,99.90
2022-10-26T21:51:37.316Z,99.90
2022-10-26T21:54:06.280Z,99.90
2022-10-26T21:56:35.030Z,99.90
2022-10-26T21:59:03.853Z,99.90
2022-10-26T22:01:33.116Z,99.90
2022-10-26T22:04:03.409Z,99.90
2022-10-26T22:06:32.324Z,99.90
2022-10-26T22:09:01.621Z,99.90
2022-10-26T22:11:30.557Z,99.90
2022-10-26T22:13:59.988Z,99.90
2022-10-26T22:16:30.152Z,99.90
2022-10-26T22:19:00.875Z,99.90
2022-10-26T22:21:34.934Z,99.90
2022-10-26T22:24:03.888Z,99.90
2022-10-26T22:26:36.259Z,99.90
2022-10-26T22:29:05.549Z,99.90
2022-10-26T22:31:36.001Z,99.90
2022-10-26T22:34:07.851Z,99.90
2022-10-26T22:36:38.575Z,99.90
2022-10-26T22:39:07.543Z,99.90
2022-10-26T22:41:36.448Z,99.90
2022-10-26T22:44:06.518Z,99.90
2022-10-26T22:46:35.348Z,99.90
2022-10-26T22:49:04.463Z,99.90
2022-10-26T22:51:35.535Z,99.90
2022-10-26T22:54:07.126Z,99.90
2022-10-26T22:56:37.674Z,99.90
2022-10-26T22:59:07.522Z,99.90
2022-10-26T23:01:41.946Z,99.90
2022-10-26T23:04:13.145Z,99.90
2022-10-26T23:06:42.248Z,99.90
2022-10-26T23:09:12.626Z,99.90
2022-10-26T23:11:41.413Z,99.90
2022-10-26T23:14:11.359Z,99.90
2022-10-26T23:16:40.283Z,99.90
2022-10-26T23:19:09.955Z,99.90
2022-10-26T23:21:38.523Z,99.90
2022-10-26T23:24:07.214Z,99.90
2022-10-26T23:26:37.224Z,99.90
2022-10-26T23:29:05.963Z,99.90
2022-10-26T23:31:34.483Z,99.90
2022-10-26T23:34:02.984Z,99.90
2022-10-26T23:36:31.478Z,99.90
2022-10-26T23:39:03.121Z,99.90
2022-10-26T23:41:31.605Z,99.90
2022-10-26T23:44:02.672Z,99.90
2022-10-26T23:46:31.261Z,99.90
2022-10-26T23:48:59.803Z,99.90
2022-10-26T23:51:28.272Z,99.90
2022-10-26T23:53:56.762Z,99.90
2022-10-26T23:56:25.418Z,99.90
2022-10-26T23:58:53.951Z,99.90
